Total volume
$2,393
Trades
185
Unique wallets
132
Liquidity
$7,218
Latest YES mid
66¢
Latest NO mid
34¢
End date
2026-05-05
First seen
2026-05-05
last 05-05 17:04
Cohort breakdown
who's buying — by wallet tier SMI: -19.8¢ (top1%: 33% YES on $452 vs crowd: 53% YES on $1.5K)
By volume tier
Tier Wallets YES buy NO buy Net bias
🐟 Fish 9 $134 $161 $27
🦐 Shrimp 123 $638 $521 +$117
By P&L percentile
Tier Wallets YES buy NO buy Net bias
🎯 Top 1% 13 $150 $301 $151
🏆 Top 5% 15 $68 $46 +$22
✅ Top 10% 9 $28 $1 +$27
Median 10 $50 $19 +$31
Below median 11 $30 $2 +$28
⚠️ Bottom 10% 10 $16 $14 +$2
🔻 Bottom 5% 18 $81 $101 $19
💀 Bottom 1% 5 $79 $85 $5
unranked 41 $268 $113 +$155
Wallet Side Net shares Cost basis Volume Trades Last activity
(anonymous) 0xf00e…b9b8 Down +313 $4 $4 2 05-05 17:04
Scary-Dueling 0x4712…dd08 Down +217 $100 $100 1 05-05 17:02
Ringed-Hospitality 0x56d1…839a Down +194 $4 $4 1 05-05 17:04
(anonymous) 0x4ab7…5f5e Up +177 $175 $175 1 05-05 17:04
Judicious-Determination 0xa31a…379c Down +170 $5 $5 1 05-05 17:04
Oval-Brotherinlaw 0xf36e…40aa Up +123 $68 $68 1 05-05 17:02
(anonymous) 0xa3d0…ec04 Down +107 $49 $49 1 05-05 17:02
Upset-Sight 0xe022…6603 Down +100 $46 $46 5 05-05 17:02
Agile-Spacing 0xce25…7fdc Up +96 $50 $50 1 05-05 17:02
Marvelous-Installation 0xefd1…c520 Down +91 $40 $40 1 05-05 17:02
Angry-Culvert 0xa867…f165 Down +90 $42 $42 9 05-05 17:02
Popular-Insurrection 0xeebd…ba30 Down +81 $35 $35 2 05-05 17:02
(anonymous) 0xe907…cff6 Down +80 $36 $36 1 05-05 17:02
Dense-Lashes 0xcbe3…7b80 Down +69 $25 $25 1 05-05 17:02
Exalted-Mattress 0xa8cc…41a9 Down +62 $25 $25 1 05-05 17:02
Exalted-Mattress 0xa8cc…41a9 Up +61 $32 $32 1 05-05 17:02
Novel-Morbid 0x4766…5a03 Down +60 $26 $26 3 05-05 17:02
Little-Fraction 0xcfb1…f694 Up +56 $30 $30 1 05-05 17:02
Little-Fraction 0xcfb1…f694 Down +56 $26 $26 1 05-05 17:02
Sentimental-Differential 0x510a…d77f Down +47 $22 $22 1 05-05 17:02
Joyful-Algorithm 0xf16a…f999 Down +47 $22 $22 1 05-05 17:02
Upset-Sight 0xe022…6603 Up +40 $22 $22 2 05-05 17:02
Slight-Goodnight 0x6088…f361 Up +40 $21 $21 1 05-05 17:02
Infantile-Sill 0x7ba4…b59b Up +40 $40 $40 1 05-05 17:04
Slight-Goodnight 0x6088…f361 Down +40 $18 $18 1 05-05 17:02
Ripe-Suggestion 0x069c…cf63 Down +31 $15 $15 1 05-05 17:02
Flimsy-Spectacles 0x4e1a…1e2a Up +31 $31 $31 1 05-05 17:04
Angry-Culvert 0xa867…f165 Up +30 $17 $17 3 05-05 17:02
Equal-Renaissance 0x1c4e…4150 Down +30 $14 $14 3 05-05 17:02
Upbeat-Necktie 0x48ea…3e30 Down +27 $13 $13 3 05-05 17:02
Vengeful-Deposit 0x4295…9f10 Up +22 $22 $22 1 05-05 17:04
Tangible-Snuggle 0xdc34…67f5 Up +21 $12 $12 1 05-05 17:02
Nice-Exposition 0x0386…0f18 Up +20 $20 $20 1 05-05 17:04
Novel-Morbid 0x4766…5a03 Up +20 $10 $10 1 05-05 17:02
Angry-Suede 0x8692…fbac Up +20 $11 $11 4 05-05 17:02
Hard-Counter 0x32e4…beed Up +20 $11 $11 1 05-05 17:02
Hard-Counter 0x32e4…beed Down +20 $9 $9 1 05-05 17:02
Fluid-Pattern 0xdc5c…808a Up +19 $19 $19 1 05-05 17:04
Mean-Undershirt 0x17c6…0eb6 Up +18 $10 $10 1 05-05 17:02
Nice-Prejudice 0xfb0f…0b02 Up +17 $9 $9 3 05-05 17:02
Unacceptable-Networking 0xc512…a24f Down +17 $8 $8 1 05-05 17:02
Good-Natured-Angora 0x6748…ee08 Down +16 $7 $7 1 05-05 17:02
Big-Hearted-Warning-Fingernail 0x7e5d…c4c3 Down +15 $7 $7 1 05-05 17:02
Nervous-Product 0x1c0c…caf9 Down +14 $5 $5 1 05-05 17:02
Frilly-Guacamole 0x1adb…2940 Up +12 $6 $6 1 05-05 16:22
Phony-Skyscraper 0x9057…02da Down +11 $5 $5 1 05-05 17:02
Scratchy-Anise 0x9657…6074 Down +10 $5 $5 1 05-05 17:02
Lively-Authenticity 0xb55f…64d4 Up +10 $5 $5 1 05-05 17:02
Tender-Tandem 0x47c5…b431 Down +10 $5 $5 2 05-05 17:02
Unequaled-Posterior 0xbd49…ba92 Down +10 $5 $5 1 05-05 16:59
Carefree-Rostrum 0xb862…5ee5 Up +10 $5 $5 1 05-05 17:02
Humiliating-Ligand 0x36ac…7ea5 Down +10 $5 $5 1 05-05 16:59
Frightening-Randomization 0xecef…4551 Up +9 $9 $9 1 05-05 17:04
Any-Fatigue 0xd374…5298 Up +9 $5 $5 1 05-05 17:02
Monstrous-Dew 0x5b63…11a4 Up +9 $5 $5 1 05-05 16:59
Avaricious-Temper 0x46b8…1420 Up +8 $8 $8 1 05-05 17:04
Aching-Whack 0xd8a6…fc22 Up +8 $8 $8 3 05-05 17:04
Medium-Decency 0x530e…a0bd Up +6 $3 $3 1 05-05 17:02
Foolhardy-Toe 0x622b…8b76 Up +6 $6 $6 1 05-05 17:04
Wild-Interaction 0xe263…723a Up +6 $3 $3 1 05-05 16:59